createdAt,value
2023-05-10T00:02:16.501Z,11.22
2023-05-10T00:04:43.522Z,11.19
2023-05-10T00:07:10.174Z,11.19
2023-05-10T00:09:36.942Z,11.16
2023-05-10T00:12:03.684Z,11.06
2023-05-10T00:14:30.519Z,10.98
2023-05-10T00:16:57.147Z,10.98
2023-05-10T00:19:23.946Z,10.96
2023-05-10T00:21:50.681Z,10.97
2023-05-10T00:24:18.465Z,10.89
2023-05-10T00:26:46.477Z,10.91
2023-05-10T00:29:13.291Z,10.82
2023-05-10T00:31:40.214Z,10.85
2023-05-10T00:34:06.873Z,10.82
2023-05-10T00:36:33.475Z,10.86
2023-05-10T00:39:00.274Z,10.78
2023-05-10T00:41:27.012Z,10.70
2023-05-10T00:43:53.852Z,10.77
2023-05-10T00:46:20.953Z,10.74
2023-05-10T00:48:48.023Z,10.71
2023-05-10T00:51:15.184Z,10.63
2023-05-10T00:53:42.054Z,10.57
2023-05-10T00:56:09.215Z,10.60
2023-05-10T00:58:36.680Z,10.64
2023-05-10T01:01:07.321Z,10.52
2023-05-10T01:03:34.366Z,10.47
2023-05-10T01:06:02.161Z,10.48
2023-05-10T01:08:29.657Z,10.47
2023-05-10T01:10:56.498Z,10.53
2023-05-10T01:13:36.957Z,10.52
2023-05-10T01:16:04.187Z,10.54
2023-05-10T01:18:35.569Z,10.48
2023-05-10T01:21:20.224Z,10.49
2023-05-10T01:24:18.805Z,10.48
2023-05-10T01:27:06.783Z,10.55
2023-05-10T01:30:21.775Z,10.58
2023-05-10T01:33:01.094Z,10.57
2023-05-10T01:35:55.503Z,10.55
2023-05-10T01:38:39.282Z,10.54
2023-05-10T01:41:11.778Z,10.58
2023-05-10T01:43:54.800Z,10.61
2023-05-10T01:46:41.122Z,10.66
2023-05-10T01:49:24.189Z,10.65
2023-05-10T01:51:54.487Z,10.62
2023-05-10T01:54:23.505Z,10.70
2023-05-10T01:57:07.832Z,10.70
2023-05-10T01:59:40.441Z,10.78
2023-05-10T02:02:08.057Z,10.80
2023-05-10T02:04:43.229Z,10.86
2023-05-10T02:07:11.007Z,10.81
2023-05-10T02:09:39.241Z,10.77
2023-05-10T02:12:07.592Z,10.83
2023-05-10T02:14:38.071Z,10.85
2023-05-10T02:17:11.628Z,10.85
2023-05-10T02:19:41.835Z,10.90
2023-05-10T02:22:09.468Z,10.85
2023-05-10T02:24:38.724Z,10.88
2023-05-10T02:27:06.053Z,10.86
2023-05-10T02:29:34.513Z,10.85
2023-05-10T02:32:04.842Z,10.76
2023-05-10T02:34:32.806Z,10.71
2023-05-10T02:37:01.885Z,10.75
2023-05-10T02:39:30.295Z,10.66
2023-05-10T02:41:58.593Z,10.58
2023-05-10T02:44:28.925Z,10.58
2023-05-10T02:46:55.812Z,10.49
2023-05-10T02:49:22.872Z,10.47
2023-05-10T02:51:56.604Z,10.50
2023-05-10T02:54:30.516Z,10.47
2023-05-10T02:57:06.362Z,10.27
2023-05-10T02:59:33.038Z,10.31
2023-05-10T03:02:03.468Z,10.11
2023-05-10T03:04:30.277Z,10.20
2023-05-10T03:06:57.183Z,10.22
2023-05-10T03:09:23.876Z,10.18
2023-05-10T03:12:02.776Z,10.14
2023-05-10T03:14:54.276Z,10.12
2023-05-10T03:17:35.994Z,10.15
2023-05-10T03:20:13.916Z,10.16
2023-05-10T03:22:58.458Z,10.17
2023-05-10T03:25:31.229Z,10.17
2023-05-10T03:28:20.891Z,10.14
2023-05-10T03:31:02.822Z,10.17
2023-05-10T03:33:30.063Z,10.19
2023-05-10T03:35:56.735Z,10.25
2023-05-10T03:38:23.341Z,10.24
2023-05-10T03:40:50.036Z,10.24
2023-05-10T03:43:16.785Z,10.30
2023-05-10T03:45:43.382Z,10.27
2023-05-10T03:48:10.075Z,10.30
2023-05-10T03:50:36.775Z,10.26
2023-05-10T03:53:03.480Z,10.29
2023-05-10T03:55:32.704Z,10.33
2023-05-10T03:57:59.535Z,10.31
2023-05-10T04:00:27.250Z,10.32
2023-05-10T04:02:54.215Z,10.38
2023-05-10T04:05:20.957Z,10.37
2023-05-10T04:07:47.846Z,10.40
2023-05-10T04:10:17.866Z,10.42
2023-05-10T04:12:44.799Z,10.43
2023-05-10T04:15:11.839Z,10.42
2023-05-10T04:17:38.552Z,10.46
2023-05-10T04:20:07.576Z,10.41
2023-05-10T04:22:34.522Z,10.16
2023-05-10T04:25:01.446Z,10.15
2023-05-10T04:27:28.186Z,10.11
2023-05-10T04:29:54.930Z,10.15
2023-05-10T04:32:21.733Z,10.17
2023-05-10T04:34:48.662Z,10.34
2023-05-10T04:37:15.734Z,10.55
2023-05-10T04:39:42.652Z,10.51
2023-05-10T04:42:11.621Z,10.68
2023-05-10T04:44:38.382Z,10.89
2023-05-10T04:47:05.258Z,11.15
2023-05-10T04:49:31.932Z,11.08
2023-05-10T04:51:58.670Z,11.14
2023-05-10T04:54:25.641Z,11.17
2023-05-10T04:56:55.370Z,11.26
2023-05-10T04:59:22.163Z,11.42
2023-05-10T05:01:48.867Z,11.40
2023-05-10T05:04:15.574Z,11.43
2023-05-10T05:06:42.514Z,11.35
2023-05-10T05:09:09.195Z,11.44
2023-05-10T05:11:36.142Z,11.52
2023-05-10T05:14:02.828Z,11.59
2023-05-10T05:16:31.909Z,11.71
2023-05-10T05:18:58.631Z,12.36
2023-05-10T05:21:25.299Z,12.67
2023-05-10T05:23:52.043Z,13.09
2023-05-10T05:26:18.717Z,13.47
2023-05-10T05:28:45.410Z,13.89
2023-05-10T05:31:14.597Z,14.20
2023-05-10T05:33:41.588Z,14.46
2023-05-10T05:36:08.420Z,14.43
2023-05-10T05:38:37.999Z,14.36
2023-05-10T05:41:04.697Z,14.11
2023-05-10T05:43:33.653Z,14.45
2023-05-10T05:46:01.282Z,14.62
2023-05-10T05:48:28.040Z,14.73
2023-05-10T05:50:58.408Z,15.05
2023-05-10T05:53:25.431Z,15.32
2023-05-10T05:55:56.794Z,15.23
2023-05-10T05:58:23.783Z,15.61
2023-05-10T06:00:51.238Z,15.75
2023-05-10T06:03:18.146Z,15.85
2023-05-10T06:05:45.344Z,15.84
2023-05-10T06:08:12.437Z,15.65
2023-05-10T06:10:39.232Z,15.65
2023-05-10T06:13:06.237Z,15.57
2023-05-10T06:15:33.150Z,15.98
2023-05-10T06:18:00.262Z,15.73
2023-05-10T06:20:27.064Z,15.82
2023-05-10T06:22:53.702Z,16.07
2023-05-10T06:25:20.485Z,16.30
2023-05-10T06:27:50.484Z,16.23
2023-05-10T06:30:19.516Z,16.16
2023-05-10T06:32:48.737Z,16.21
2023-05-10T06:35:15.604Z,16.33
2023-05-10T06:37:42.451Z,16.91
2023-05-10T06:40:23.138Z,16.84
2023-05-10T06:42:49.922Z,17.01
2023-05-10T06:45:18.032Z,17.30
2023-05-10T06:47:45.100Z,16.89
2023-05-10T06:50:12.545Z,16.72
2023-05-10T06:52:39.470Z,16.64
2023-05-10T06:55:09.523Z,16.34
2023-05-10T06:57:37.240Z,16.17
2023-05-10T07:00:04.736Z,15.78
2023-05-10T07:02:31.736Z,15.92
2023-05-10T07:05:00.900Z,15.74
2023-05-10T07:07:29.625Z,15.59
2023-05-10T07:09:56.278Z,15.65
2023-05-10T07:12:25.222Z,15.26
2023-05-10T07:14:52.015Z,15.42
2023-05-10T07:17:19.496Z,15.51
2023-05-10T07:19:48.994Z,15.82
2023-05-10T07:22:22.789Z,15.78
2023-05-10T07:24:49.384Z,16.22
2023-05-10T07:27:16.114Z,16.36
2023-05-10T07:29:42.868Z,16.68
2023-05-10T07:32:09.585Z,16.94
2023-05-10T07:34:36.422Z,17.39
2023-05-10T07:37:03.177Z,17.51
2023-05-10T07:39:29.897Z,17.80
2023-05-10T07:41:56.727Z,17.90
2023-05-10T07:44:23.946Z,17.72
2023-05-10T07:46:50.697Z,17.64
2023-05-10T07:49:17.587Z,17.87
2023-05-10T07:51:44.290Z,17.48
2023-05-10T07:54:10.962Z,16.64
2023-05-10T07:56:37.684Z,16.59
2023-05-10T07:59:05.139Z,16.82
2023-05-10T08:01:33.044Z,17.12
2023-05-10T08:03:59.927Z,17.20
2023-05-10T08:06:26.935Z,17.59
2023-05-10T08:08:53.692Z,17.48
2023-05-10T08:11:21.567Z,17.96
2023-05-10T08:13:49.544Z,18.25
2023-05-10T08:16:17.067Z,18.45
2023-05-10T08:18:45.307Z,18.26
2023-05-10T08:21:12.128Z,18.30
2023-05-10T08:23:38.856Z,18.14
2023-05-10T08:26:05.532Z,17.95
2023-05-10T08:28:32.394Z,18.50
2023-05-10T08:30:59.289Z,19.19
2023-05-10T08:33:26.040Z,19.41
2023-05-10T08:35:52.624Z,19.68
2023-05-10T08:38:19.719Z,19.53
2023-05-10T08:40:46.426Z,19.66
2023-05-10T08:43:14.369Z,19.65
2023-05-10T08:45:43.307Z,19.09
2023-05-10T08:48:11.767Z,18.34
2023-05-10T08:50:40.168Z,18.06
2023-05-10T08:53:17.554Z,18.41
2023-05-10T08:55:44.276Z,18.13
2023-05-10T08:58:11.274Z,17.64
2023-05-10T09:00:38.293Z,17.93
2023-05-10T09:03:06.203Z,17.98
2023-05-10T09:05:33.075Z,18.03
2023-05-10T09:07:59.840Z,17.95
2023-05-10T09:10:27.404Z,17.69
2023-05-10T09:12:57.451Z,17.54
2023-05-10T09:15:26.347Z,17.57
2023-05-10T09:17:53.172Z,17.86
2023-05-10T09:20:21.887Z,17.59
2023-05-10T09:22:48.697Z,17.37
2023-05-10T09:25:17.098Z,17.46
2023-05-10T09:27:48.816Z,17.53
2023-05-10T09:30:25.507Z,18.25
2023-05-10T09:32:52.554Z,17.81
2023-05-10T09:35:21.208Z,17.97
2023-05-10T09:37:52.760Z,17.82
2023-05-10T09:40:20.403Z,18.11
2023-05-10T09:43:00.330Z,18.79
2023-05-10T09:45:31.581Z,18.84
2023-05-10T09:48:00.494Z,18.79
2023-05-10T09:50:28.076Z,19.07
2023-05-10T09:53:02.291Z,18.95
2023-05-10T09:55:46.000Z,18.97
2023-05-10T09:58:15.996Z,19.07
2023-05-10T10:00:47.450Z,19.04
2023-05-10T10:03:21.432Z,19.03
2023-05-10T10:05:49.425Z,19.22
2023-05-10T10:08:17.318Z,19.22
2023-05-10T10:10:43.993Z,19.25
2023-05-10T10:13:10.815Z,18.98
2023-05-10T10:15:38.179Z,18.98
2023-05-10T10:18:06.675Z,18.96
2023-05-10T10:20:33.459Z,18.98
2023-05-10T10:23:01.499Z,19.04
2023-05-10T10:25:28.401Z,18.86
2023-05-10T10:27:54.997Z,18.52
2023-05-10T10:30:27.033Z,18.55
2023-05-10T10:33:28.944Z,18.18
2023-05-10T10:35:59.085Z,18.29
2023-05-10T10:38:25.968Z,18.60
2023-05-10T10:41:30.150Z,18.74
2023-05-10T10:44:35.792Z,18.96
2023-05-10T10:47:23.789Z,18.83
2023-05-10T10:50:09.706Z,18.78
2023-05-10T10:52:41.199Z,19.09
2023-05-10T10:55:25.725Z,19.46
2023-05-10T10:57:52.407Z,19.46
2023-05-10T11:00:26.497Z,19.61
2023-05-10T11:03:00.530Z,19.51
2023-05-10T11:05:37.607Z,19.79
2023-05-10T11:08:10.383Z,19.89
2023-05-10T11:10:37.126Z,19.75
2023-05-10T11:13:08.514Z,19.81
2023-05-10T11:15:49.005Z,19.72
2023-05-10T11:18:22.224Z,20.07
2023-05-10T11:21:02.612Z,19.62
2023-05-10T11:23:44.733Z,19.53
2023-05-10T11:26:12.727Z,19.48
2023-05-10T11:28:46.338Z,18.90
2023-05-10T11:31:20.329Z,19.00
2023-05-10T11:33:49.566Z,19.24
2023-05-10T11:36:26.853Z,19.36
2023-05-10T11:38:54.279Z,19.26
2023-05-10T11:41:22.025Z,18.92
2023-05-10T11:43:51.159Z,18.92
2023-05-10T11:46:20.862Z,18.96
2023-05-10T11:48:50.489Z,18.65
2023-05-10T11:51:22.691Z,18.61
2023-05-10T11:53:51.192Z,18.83
2023-05-10T11:56:17.835Z,19.25
2023-05-10T11:58:44.524Z,19.43
2023-05-10T12:01:12.119Z,19.65
2023-05-10T12:03:39.459Z,19.80
2023-05-10T12:06:07.948Z,19.80
2023-05-10T12:08:34.775Z,19.58
2023-05-10T12:11:12.513Z,19.36
2023-05-10T12:13:40.118Z,19.50
2023-05-10T12:16:23.717Z,19.41
2023-05-10T12:18:56.732Z,19.64
2023-05-10T12:21:23.954Z,19.43
2023-05-10T12:23:55.642Z,19.01
2023-05-10T12:26:26.283Z,18.57
2023-05-10T12:28:54.401Z,18.40
2023-05-10T12:31:21.069Z,18.43
2023-05-10T12:33:47.815Z,18.32
2023-05-10T12:36:15.937Z,18.22
2023-05-10T12:38:44.861Z,18.33
2023-05-10T12:41:13.598Z,18.19
2023-05-10T12:43:41.131Z,18.26
2023-05-10T12:46:10.593Z,18.35
2023-05-10T12:48:39.163Z,18.78
2023-05-10T12:51:06.692Z,19.00
2023-05-10T12:53:33.404Z,19.30
2023-05-10T12:56:00.058Z,19.32
2023-05-10T12:58:35.654Z,19.24
2023-05-10T13:01:03.483Z,19.11
2023-05-10T13:03:30.309Z,18.98
2023-05-10T13:05:57.031Z,18.88
2023-05-10T13:08:23.756Z,18.71
2023-05-10T13:10:50.448Z,18.56
2023-05-10T13:13:17.161Z,18.49
2023-05-10T13:15:43.805Z,18.56
2023-05-10T13:18:10.659Z,18.65
2023-05-10T13:20:37.535Z,18.48
2023-05-10T13:23:04.182Z,18.45
2023-05-10T13:25:30.819Z,18.42
2023-05-10T13:27:57.516Z,18.45
2023-05-10T13:30:24.177Z,18.50
2023-05-10T13:32:50.819Z,18.60
2023-05-10T13:35:17.423Z,18.66
2023-05-10T13:37:46.065Z,18.96
2023-05-10T13:40:12.928Z,19.24
2023-05-10T13:42:39.664Z,19.39
2023-05-10T13:45:07.087Z,19.36
2023-05-10T13:47:35.702Z,19.26
2023-05-10T13:50:05.218Z,19.19
2023-05-10T13:52:33.225Z,19.29
2023-05-10T13:54:59.866Z,19.51
2023-05-10T13:57:29.286Z,19.28
2023-05-10T13:59:58.561Z,18.99
2023-05-10T14:02:25.322Z,18.93
2023-05-10T14:04:51.961Z,18.84
2023-05-10T14:07:18.593Z,18.76
2023-05-10T14:09:45.329Z,18.65
2023-05-10T14:12:13.054Z,18.46
2023-05-10T14:14:39.856Z,18.40
2023-05-10T14:17:10.736Z,18.47
2023-05-10T14:19:38.716Z,18.35
2023-05-10T14:22:05.400Z,18.39
2023-05-10T14:24:32.230Z,18.35
2023-05-10T14:26:58.805Z,18.26
2023-05-10T14:29:25.493Z,18.29
2023-05-10T14:31:52.219Z,18.22
2023-05-10T14:34:18.844Z,18.16
2023-05-10T14:36:45.486Z,18.34
2023-05-10T14:39:12.115Z,18.45
2023-05-10T14:41:38.750Z,18.48
2023-05-10T14:44:05.496Z,18.59
2023-05-10T14:46:32.221Z,18.76
2023-05-10T14:48:59.036Z,18.86
2023-05-10T14:51:25.773Z,18.89
2023-05-10T14:53:52.543Z,19.08
2023-05-10T14:56:19.174Z,19.15
2023-05-10T14:58:45.824Z,19.19
2023-05-10T15:01:12.580Z,19.25
2023-05-10T15:03:39.853Z,19.38
2023-05-10T15:06:07.196Z,19.36
2023-05-10T15:08:33.811Z,19.39
2023-05-10T15:11:00.407Z,19.32
2023-05-10T15:13:27.055Z,19.24
2023-05-10T15:15:53.853Z,19.00
2023-05-10T15:18:20.567Z,18.92
2023-05-10T15:20:47.249Z,18.95
2023-05-10T15:23:13.954Z,18.71
2023-05-10T15:25:40.705Z,18.66
2023-05-10T15:28:07.414Z,18.52
2023-05-10T15:30:34.081Z,18.64
2023-05-10T15:33:00.889Z,18.66
2023-05-10T15:35:27.988Z,18.80
2023-05-10T15:37:54.628Z,18.83
2023-05-10T15:40:21.299Z,18.70
2023-05-10T15:42:47.936Z,18.58
2023-05-10T15:45:15.256Z,18.57
2023-05-10T15:47:42.077Z,18.65
2023-05-10T15:50:09.815Z,18.68
2023-05-10T15:52:36.511Z,18.60
2023-05-10T15:55:03.495Z,18.73
2023-05-10T15:57:30.514Z,18.69
2023-05-10T15:59:57.142Z,18.63
2023-05-10T16:02:23.958Z,18.62
2023-05-10T16:04:50.826Z,18.62
2023-05-10T16:07:17.501Z,18.55
2023-05-10T16:09:44.084Z,18.60
2023-05-10T16:12:10.843Z,18.53
2023-05-10T16:14:37.500Z,18.53
2023-05-10T16:17:04.619Z,18.44
2023-05-10T16:19:31.724Z,18.46
2023-05-10T16:21:58.467Z,18.49
2023-05-10T16:24:25.736Z,18.47
2023-05-10T16:26:52.425Z,18.50
2023-05-10T16:29:19.138Z,18.39
2023-05-10T16:31:45.811Z,18.31
2023-05-10T16:34:12.597Z,18.31
2023-05-10T16:36:39.385Z,18.26
2023-05-10T16:39:06.084Z,18.22
2023-05-10T16:41:36.329Z,18.11
2023-05-10T16:44:03.022Z,18.12
2023-05-10T16:46:29.731Z,18.08
2023-05-10T16:48:56.418Z,18.05
2023-05-10T16:51:23.024Z,17.95
2023-05-10T16:53:49.903Z,17.91
2023-05-10T16:56:16.667Z,17.90
2023-05-10T16:58:43.278Z,17.79
2023-05-10T17:01:10.047Z,17.76
2023-05-10T17:03:36.921Z,17.59
2023-05-10T17:06:05.833Z,17.40
2023-05-10T17:08:32.917Z,17.43
2023-05-10T17:11:03.130Z,17.29
2023-05-10T17:13:30.390Z,17.23
2023-05-10T17:15:57.208Z,17.17
2023-05-10T17:18:24.014Z,17.08
2023-05-10T17:20:50.994Z,17.00
2023-05-10T17:23:17.646Z,16.92
2023-05-10T17:25:44.307Z,16.88
2023-05-10T17:28:10.985Z,16.78
2023-05-10T17:30:37.692Z,16.74
2023-05-10T17:33:04.798Z,16.66
2023-05-10T17:35:32.500Z,16.55
2023-05-10T17:37:59.146Z,16.48
2023-05-10T17:40:25.863Z,16.40
2023-05-10T17:42:52.454Z,16.40
2023-05-10T17:45:20.033Z,16.33
2023-05-10T17:47:46.724Z,16.33
2023-05-10T17:50:13.484Z,16.18
2023-05-10T17:52:40.092Z,16.22
2023-05-10T17:55:07.404Z,16.06
2023-05-10T17:57:34.138Z,16.08
2023-05-10T18:00:00.855Z,16.08
2023-05-10T18:02:27.617Z,15.93
2023-05-10T18:04:55.103Z,15.90
2023-05-10T18:07:22.966Z,15.92
2023-05-10T18:09:49.815Z,15.85
2023-05-10T18:12:16.512Z,15.79
2023-05-10T18:14:43.208Z,15.77
2023-05-10T18:17:10.089Z,15.74
2023-05-10T18:19:37.001Z,15.69
2023-05-10T18:22:03.703Z,15.68
2023-05-10T18:27:00.199Z,15.64
2023-05-10T18:29:26.915Z,15.55
2023-05-10T18:31:53.680Z,15.57
2023-05-10T18:34:20.339Z,15.49
2023-05-10T18:36:47.059Z,15.48
2023-05-10T18:39:13.761Z,15.43
2023-05-10T18:41:40.742Z,15.37
2023-05-10T18:44:07.488Z,15.34
2023-05-10T18:46:34.205Z,15.40
2023-05-10T18:49:00.879Z,15.39
2023-05-10T18:51:27.564Z,15.33
2023-05-10T18:53:54.440Z,15.28
2023-05-10T18:56:21.037Z,15.27
2023-05-10T18:58:47.649Z,15.24
2023-05-10T19:01:14.400Z,15.23
2023-05-10T19:03:41.251Z,15.25
2023-05-10T19:06:07.990Z,15.19
2023-05-10T19:08:34.672Z,15.18
2023-05-10T19:11:01.289Z,15.12
2023-05-10T19:13:28.051Z,15.13
2023-05-10T19:16:14.510Z,15.02
2023-05-10T19:18:41.305Z,15.02
2023-05-10T19:21:09.731Z,15.00
2023-05-10T19:23:39.141Z,14.97
2023-05-10T19:26:05.954Z,14.99
2023-05-10T19:28:32.646Z,14.97
2023-05-10T19:30:59.287Z,14.90
2023-05-10T19:33:26.061Z,14.84
2023-05-10T19:35:53.507Z,14.87
2023-05-10T19:38:24.360Z,14.77
2023-05-10T19:40:52.257Z,14.69
2023-05-10T19:43:19.791Z,14.71
2023-05-10T19:45:46.460Z,14.68
2023-05-10T19:48:13.264Z,14.69
2023-05-10T19:50:39.963Z,14.71
2023-05-10T19:53:06.681Z,14.67
2023-05-10T19:55:33.314Z,14.65
2023-05-10T19:57:59.895Z,14.66
2023-05-10T20:00:26.687Z,14.59
2023-05-10T20:02:54.276Z,14.61
2023-05-10T20:05:21.566Z,14.61
2023-05-10T20:07:48.312Z,14.55
2023-05-10T20:10:15.194Z,14.52
2023-05-10T20:12:41.784Z,14.53
2023-05-10T20:15:08.654Z,14.48
2023-05-10T20:17:35.738Z,14.46
2023-05-10T20:20:02.505Z,14.31
2023-05-10T20:22:29.175Z,14.22
2023-05-10T20:24:56.305Z,14.11
2023-05-10T20:27:23.614Z,14.22
2023-05-10T20:29:50.268Z,14.15
2023-05-10T20:32:16.944Z,14.08
2023-05-10T20:34:43.555Z,14.02
2023-05-10T20:37:10.221Z,14.06
2023-05-10T20:39:36.852Z,13.94
2023-05-10T20:42:03.596Z,13.97
2023-05-10T20:44:30.181Z,13.83
2023-05-10T20:46:57.021Z,13.73
2023-05-10T20:49:23.760Z,13.82
2023-05-10T20:51:50.398Z,13.78
2023-05-10T20:54:17.001Z,13.76
2023-05-10T20:56:43.634Z,13.70
2023-05-10T20:59:10.916Z,13.64
2023-05-10T21:01:37.639Z,13.40
2023-05-10T21:04:04.374Z,13.31
2023-05-10T21:06:31.094Z,13.34
2023-05-10T21:08:57.805Z,13.40
2023-05-10T21:11:24.556Z,13.27
2023-05-10T21:13:51.552Z,13.29
2023-05-10T21:16:18.316Z,13.33
2023-05-10T21:18:45.081Z,13.33
2023-05-10T21:21:11.896Z,13.23
2023-05-10T21:23:38.568Z,13.26
2023-05-10T21:26:05.629Z,13.11
2023-05-10T21:28:32.369Z,13.08
2023-05-10T21:30:59.067Z,12.90
2023-05-10T21:33:25.804Z,12.90
2023-05-10T21:35:52.505Z,12.80
2023-05-10T21:38:19.321Z,12.75
2023-05-10T21:40:45.959Z,12.81
2023-05-10T21:43:12.705Z,12.80
2023-05-10T21:45:39.489Z,12.80
2023-05-10T21:48:06.511Z,12.76
2023-05-10T21:50:33.291Z,12.67
2023-05-10T21:53:00.005Z,12.64
2023-05-10T21:55:28.046Z,12.62
2023-05-10T21:57:54.779Z,12.57
2023-05-10T22:00:21.431Z,12.60
2023-05-10T22:02:48.163Z,12.59
2023-05-10T22:05:14.954Z,12.54
2023-05-10T22:07:41.634Z,12.56
2023-05-10T22:10:09.813Z,12.36
2023-05-10T22:12:36.532Z,12.41
2023-05-10T22:17:32.839Z,12.44
2023-05-10T22:19:59.465Z,12.37
2023-05-10T22:22:26.072Z,12.33
2023-05-10T22:24:52.705Z,12.25
2023-05-10T22:27:19.343Z,12.23
2023-05-10T22:29:45.989Z,12.17
2023-05-10T22:32:12.634Z,12.18
2023-05-10T22:34:39.361Z,12.20
2023-05-10T22:37:06.036Z,12.20
2023-05-10T22:39:33.304Z,12.15
2023-05-10T22:42:00.004Z,12.13
2023-05-10T22:44:26.638Z,12.11
2023-05-10T22:46:53.320Z,12.05
2023-05-10T22:49:20.005Z,12.06
2023-05-10T22:51:46.737Z,12.03
2023-05-10T22:54:13.366Z,12.05
2023-05-10T22:56:40.191Z,12.01
2023-05-10T22:59:07.184Z,12.03
2023-05-10T23:01:33.916Z,12.00
2023-05-10T23:04:00.690Z,12.01
2023-05-10T23:06:27.356Z,12.02
2023-05-10T23:08:54.829Z,12.00
2023-05-10T23:11:21.492Z,11.99
2023-05-10T23:13:48.653Z,11.98
2023-05-10T23:16:15.358Z,11.95
2023-05-10T23:18:42.132Z,11.92
2023-05-10T23:21:08.814Z,11.95
2023-05-10T23:23:35.524Z,11.91
2023-05-10T23:26:02.281Z,11.91
2023-05-10T23:28:29.017Z,11.89
2023-05-10T23:30:57.390Z,11.87
2023-05-10T23:33:24.864Z,11.78
2023-05-10T23:35:51.554Z,11.81
2023-05-10T23:38:18.159Z,11.73
2023-05-10T23:40:48.928Z,11.76
2023-05-10T23:43:16.670Z,11.74
2023-05-10T23:45:43.637Z,11.74
2023-05-10T23:48:10.304Z,11.65
2023-05-10T23:50:36.994Z,11.65
2023-05-10T23:53:03.648Z,11.71
2023-05-10T23:56:02.867Z,11.65
2023-05-10T23:58:29.573Z,11.63
